sensor_id;sensor_type;location;lat;lon;timestamp;temperature;humidity
1594;DHT22;790;47.000;16.084;2023-06-10T00:00:44;17.00;99.90
1594;DHT22;790;47.000;16.084;2023-06-10T00:03:11;17.00;99.90
1594;DHT22;790;47.000;16.084;2023-06-10T00:05:39;16.90;99.90
1594;DHT22;790;47.000;16.084;2023-06-10T00:08:07;16.90;99.90
1594;DHT22;790;47.000;16.084;2023-06-10T00:10:36;16.90;99.90
1594;DHT22;790;47.000;16.084;2023-06-10T00:13:04;16.90;99.90
1594;DHT22;790;47.000;16.084;2023-06-10T00:15:34;16.90;99.90
1594;DHT22;790;47.000;16.084;2023-06-10T00:18:03;16.90;99.90
1594;DHT22;790;47.000;16.084;2023-06-10T00:20:31;16.80;99.90
1594;DHT22;790;47.000;16.084;2023-06-10T00:22:58;16.80;99.90
1594;DHT22;790;47.000;16.084;2023-06-10T00:25:27;16.80;99.90
1594;DHT22;790;47.000;16.084;2023-06-10T00:27:56;16.90;99.90
1594;DHT22;790;47.000;16.084;2023-06-10T00:30:23;16.90;99.90
1594;DHT22;790;47.000;16.084;2023-06-10T00:32:50;16.90;99.90
1594;DHT22;790;47.000;16.084;2023-06-10T00:35:17;16.90;99.90
1594;DHT22;790;47.000;16.084;2023-06-10T00:37:44;17.00;99.90
1594;DHT22;790;47.000;16.084;2023-06-10T00:40:12;17.00;99.90
1594;DHT22;790;47.000;16.084;2023-06-10T00:42:39;17.00;99.90
1594;DHT22;790;47.000;16.084;2023-06-10T00:45:08;17.00;99.90
1594;DHT22;790;47.000;16.084;2023-06-10T00:47:35;17.00;99.90
1594;DHT22;790;47.000;16.084;2023-06-10T00:50:05;16.90;99.90
1594;DHT22;790;47.000;16.084;2023-06-10T00:52:33;16.80;99.90
1594;DHT22;790;47.000;16.084;2023-06-10T00:55:02;16.80;99.90
1594;DHT22;790;47.000;16.084;2023-06-10T00:57:29;16.80;99.90
1594;DHT22;790;47.000;16.084;2023-06-10T00:59:58;16.80;99.90
1594;DHT22;790;47.000;16.084;2023-06-10T01:02:30;16.90;99.90
1594;DHT22;790;47.000;16.084;2023-06-10T01:04:57;16.90;99.90
1594;DHT22;790;47.000;16.084;2023-06-10T01:07:30;16.90;99.90
1594;DHT22;790;47.000;16.084;2023-06-10T01:10:05;16.80;99.90
1594;DHT22;790;47.000;16.084;2023-06-10T01:12:36;16.80;99.90
1594;DHT22;790;47.000;16.084;2023-06-10T01:15:06;16.80;99.90
1594;DHT22;790;47.000;16.084;2023-06-10T01:17:51;16.80;99.90
1594;DHT22;790;47.000;16.084;2023-06-10T01:20:19;16.90;99.90
1594;DHT22;790;47.000;16.084;2023-06-10T01:22:48;16.90;99.90
1594;DHT22;790;47.000;16.084;2023-06-10T01:25:16;17.00;99.90
1594;DHT22;790;47.000;16.084;2023-06-10T01:27:45;17.00;99.90
1594;DHT22;790;47.000;16.084;2023-06-10T01:30:18;17.10;99.90
1594;DHT22;790;47.000;16.084;2023-06-10T01:32:52;17.10;99.90
1594;DHT22;790;47.000;16.084;2023-06-10T01:35:21;17.20;99.90
1594;DHT22;790;47.000;16.084;2023-06-10T01:37:54;17.20;99.90
1594;DHT22;790;47.000;16.084;2023-06-10T01:40:21;17.20;99.90
1594;DHT22;790;47.000;16.084;2023-06-10T01:42:50;17.20;99.90
1594;DHT22;790;47.000;16.084;2023-06-10T01:45:19;17.20;99.90
1594;DHT22;790;47.000;16.084;2023-06-10T01:47:46;17.20;99.90
1594;DHT22;790;47.000;16.084;2023-06-10T01:50:13;17.10;99.90
1594;DHT22;790;47.000;16.084;2023-06-10T01:52:40;17.00;99.90
1594;DHT22;790;47.000;16.084;2023-06-10T01:55:09;16.90;99.90
1594;DHT22;790;47.000;16.084;2023-06-10T01:57:36;17.00;99.90
1594;DHT22;790;47.000;16.084;2023-06-10T02:00:03;16.90;99.90
1594;DHT22;790;47.000;16.084;2023-06-10T02:02:31;16.90;99.90
1594;DHT22;790;47.000;16.084;2023-06-10T02:04:58;16.90;99.90
1594;DHT22;790;47.000;16.084;2023-06-10T02:07:26;16.80;99.90
1594;DHT22;790;47.000;16.084;2023-06-10T02:09:53;16.90;99.90
1594;DHT22;790;47.000;16.084;2023-06-10T02:12:21;16.80;99.90
1594;DHT22;790;47.000;16.084;2023-06-10T02:14:48;16.70;99.90
1594;DHT22;790;47.000;16.084;2023-06-10T02:17:16;16.60;99.90
1594;DHT22;790;47.000;16.084;2023-06-10T02:19:43;16.60;99.90
1594;DHT22;790;47.000;16.084;2023-06-10T02:22:19;16.70;99.90
1594;DHT22;790;47.000;16.084;2023-06-10T02:24:48;16.70;99.90
1594;DHT22;790;47.000;16.084;2023-06-10T02:27:16;16.70;99.90
1594;DHT22;790;47.000;16.084;2023-06-10T02:29:46;16.70;99.90
1594;DHT22;790;47.000;16.084;2023-06-10T02:32:13;16.70;99.90
1594;DHT22;790;47.000;16.084;2023-06-10T02:34:40;16.70;99.90
1594;DHT22;790;47.000;16.084;2023-06-10T02:37:08;16.80;99.90
1594;DHT22;790;47.000;16.084;2023-06-10T02:39:36;16.80;99.90
1594;DHT22;790;47.000;16.084;2023-06-10T02:42:03;16.80;99.90
1594;DHT22;790;47.000;16.084;2023-06-10T02:44:31;16.80;99.90
1594;DHT22;790;47.000;16.084;2023-06-10T02:46:59;16.80;99.90
1594;DHT22;790;47.000;16.084;2023-06-10T02:49:26;16.60;99.90
1594;DHT22;790;47.000;16.084;2023-06-10T02:51:54;16.60;99.90
1594;DHT22;790;47.000;16.084;2023-06-10T02:54:22;16.50;99.90
1594;DHT22;790;47.000;16.084;2023-06-10T02:56:50;16.50;99.90
1594;DHT22;790;47.000;16.084;2023-06-10T02:59:18;16.40;99.90
1594;DHT22;790;47.000;16.084;2023-06-10T03:01:45;16.40;99.90
1594;DHT22;790;47.000;16.084;2023-06-10T03:04:14;16.40;99.90
1594;DHT22;790;47.000;16.084;2023-06-10T03:06:41;16.40;99.90
1594;DHT22;790;47.000;16.084;2023-06-10T03:09:08;16.30;99.90
1594;DHT22;790;47.000;16.084;2023-06-10T03:11:35;16.30;99.90
1594;DHT22;790;47.000;16.084;2023-06-10T03:14:02;16.30;99.90
1594;DHT22;790;47.000;16.084;2023-06-10T03:16:29;16.40;99.90
1594;DHT22;790;47.000;16.084;2023-06-10T03:18:59;16.40;99.90
1594;DHT22;790;47.000;16.084;2023-06-10T03:21:27;16.50;99.90
1594;DHT22;790;47.000;16.084;2023-06-10T03:23:54;16.60;99.90
1594;DHT22;790;47.000;16.084;2023-06-10T03:26:21;16.60;99.90
1594;DHT22;790;47.000;16.084;2023-06-10T03:28:48;16.60;99.90
1594;DHT22;790;47.000;16.084;2023-06-10T03:31:16;16.50;99.90
1594;DHT22;790;47.000;16.084;2023-06-10T03:33:43;16.50;99.90
1594;DHT22;790;47.000;16.084;2023-06-10T03:36:10;16.50;99.90
1594;DHT22;790;47.000;16.084;2023-06-10T03:38:39;16.40;99.90
1594;DHT22;790;47.000;16.084;2023-06-10T03:41:06;16.30;99.90
1594;DHT22;790;47.000;16.084;2023-06-10T03:43:33;16.40;99.90
1594;DHT22;790;47.000;16.084;2023-06-10T03:46:00;16.40;99.90
1594;DHT22;790;47.000;16.084;2023-06-10T03:48:27;16.40;99.90
1594;DHT22;790;47.000;16.084;2023-06-10T03:50:56;16.30;99.90
1594;DHT22;790;47.000;16.084;2023-06-10T03:53:24;16.20;99.90
1594;DHT22;790;47.000;16.084;2023-06-10T03:55:52;16.30;99.90
1594;DHT22;790;47.000;16.084;2023-06-10T03:58:19;16.30;99.90
1594;DHT22;790;47.000;16.084;2023-06-10T04:00:47;16.40;99.90
1594;DHT22;790;47.000;16.084;2023-06-10T04:03:15;16.50;99.90
1594;DHT22;790;47.000;16.084;2023-06-10T04:05:43;16.50;99.90
1594;DHT22;790;47.000;16.084;2023-06-10T04:08:10;16.60;99.90
1594;DHT22;790;47.000;16.084;2023-06-10T04:10:37;16.60;99.90
1594;DHT22;790;47.000;16.084;2023-06-10T04:13:06;16.60;99.90
1594;DHT22;790;47.000;16.084;2023-06-10T04:15:33;16.50;99.90
1594;DHT22;790;47.000;16.084;2023-06-10T04:18:00;16.60;99.90
1594;DHT22;790;47.000;16.084;2023-06-10T04:20:28;16.70;99.90
1594;DHT22;790;47.000;16.084;2023-06-10T04:22:55;16.60;99.90
1594;DHT22;790;47.000;16.084;2023-06-10T04:25:22;16.50;99.90
1594;DHT22;790;47.000;16.084;2023-06-10T04:27:50;16.50;99.90
1594;DHT22;790;47.000;16.084;2023-06-10T04:30:18;16.60;99.90
1594;DHT22;790;47.000;16.084;2023-06-10T04:32:45;16.70;99.90
1594;DHT22;790;47.000;16.084;2023-06-10T04:35:13;16.80;99.90
1594;DHT22;790;47.000;16.084;2023-06-10T04:37:40;16.90;99.90
1594;DHT22;790;47.000;16.084;2023-06-10T04:40:08;17.00;99.90
1594;DHT22;790;47.000;16.084;2023-06-10T04:42:36;17.00;99.90
1594;DHT22;790;47.000;16.084;2023-06-10T04:45:04;17.10;99.90
1594;DHT22;790;47.000;16.084;2023-06-10T04:47:33;17.10;99.90
1594;DHT22;790;47.000;16.084;2023-06-10T04:50:00;17.30;99.90
1594;DHT22;790;47.000;16.084;2023-06-10T04:52:28;17.30;99.90
1594;DHT22;790;47.000;16.084;2023-06-10T04:54:57;17.40;99.90
1594;DHT22;790;47.000;16.084;2023-06-10T04:57:24;17.40;99.90
1594;DHT22;790;47.000;16.084;2023-06-10T04:59:52;17.40;99.90
1594;DHT22;790;47.000;16.084;2023-06-10T05:02:19;17.50;99.90
1594;DHT22;790;47.000;16.084;2023-06-10T05:04:49;17.50;99.90
1594;DHT22;790;47.000;16.084;2023-06-10T05:07:16;17.60;99.90
1594;DHT22;790;47.000;16.084;2023-06-10T05:09:43;17.60;99.90
1594;DHT22;790;47.000;16.084;2023-06-10T05:12:10;17.70;99.90
1594;DHT22;790;47.000;16.084;2023-06-10T05:14:38;17.70;99.90
1594;DHT22;790;47.000;16.084;2023-06-10T05:17:05;17.80;99.90
1594;DHT22;790;47.000;16.084;2023-06-10T05:19:33;17.90;99.90
1594;DHT22;790;47.000;16.084;2023-06-10T05:22:03;17.90;99.90
1594;DHT22;790;47.000;16.084;2023-06-10T05:24:30;18.00;99.90
1594;DHT22;790;47.000;16.084;2023-06-10T05:26:57;18.10;99.90
1594;DHT22;790;47.000;16.084;2023-06-10T05:29:25;18.10;99.90
1594;DHT22;790;47.000;16.084;2023-06-10T05:31:52;18.10;99.90
1594;DHT22;790;47.000;16.084;2023-06-10T05:34:22;18.20;99.90
1594;DHT22;790;47.000;16.084;2023-06-10T05:36:49;18.40;99.90
1594;DHT22;790;47.000;16.084;2023-06-10T05:39:17;18.50;99.90
1594;DHT22;790;47.000;16.084;2023-06-10T05:41:45;18.60;99.90
1594;DHT22;790;47.000;16.084;2023-06-10T05:44:15;18.60;99.90
1594;DHT22;790;47.000;16.084;2023-06-10T05:46:42;18.70;99.90
1594;DHT22;790;47.000;16.084;2023-06-10T05:49:10;18.80;99.90
1594;DHT22;790;47.000;16.084;2023-06-10T05:51:37;18.90;99.90
1594;DHT22;790;47.000;16.084;2023-06-10T05:54:04;19.00;99.90
1594;DHT22;790;47.000;16.084;2023-06-10T05:56:32;19.10;99.90
1594;DHT22;790;47.000;16.084;2023-06-10T05:59:04;19.30;99.90
1594;DHT22;790;47.000;16.084;2023-06-10T06:01:32;19.40;99.90
1594;DHT22;790;47.000;16.084;2023-06-10T06:03:59;19.50;99.90
1594;DHT22;790;47.000;16.084;2023-06-10T06:06:26;19.60;99.90
1594;DHT22;790;47.000;16.084;2023-06-10T06:08:53;19.80;99.90
1594;DHT22;790;47.000;16.084;2023-06-10T06:11:20;19.90;99.90
1594;DHT22;790;47.000;16.084;2023-06-10T06:13:49;20.00;99.90
1594;DHT22;790;47.000;16.084;2023-06-10T06:16:16;20.10;99.90
1594;DHT22;790;47.000;16.084;2023-06-10T06:18:44;20.20;99.90
1594;DHT22;790;47.000;16.084;2023-06-10T06:21:11;20.20;99.90
1594;DHT22;790;47.000;16.084;2023-06-10T06:23:38;20.30;99.90
1594;DHT22;790;47.000;16.084;2023-06-10T06:26:05;20.40;99.90
1594;DHT22;790;47.000;16.084;2023-06-10T06:28:34;20.40;99.90
1594;DHT22;790;47.000;16.084;2023-06-10T06:31:02;20.40;99.90
1594;DHT22;790;47.000;16.084;2023-06-10T06:33:29;20.40;99.90
1594;DHT22;790;47.000;16.084;2023-06-10T06:35:56;20.40;99.90
1594;DHT22;790;47.000;16.084;2023-06-10T06:38:23;20.50;99.90
1594;DHT22;790;47.000;16.084;2023-06-10T06:40:50;20.50;99.90
1594;DHT22;790;47.000;16.084;2023-06-10T06:43:17;20.60;99.90
1594;DHT22;790;47.000;16.084;2023-06-10T06:45:45;20.70;99.90
1594;DHT22;790;47.000;16.084;2023-06-10T06:48:13;20.70;99.90
1594;DHT22;790;47.000;16.084;2023-06-10T06:50:43;20.80;99.90
1594;DHT22;790;47.000;16.084;2023-06-10T06:53:10;20.90;99.90
1594;DHT22;790;47.000;16.084;2023-06-10T06:55:37;21.00;99.90
1594;DHT22;790;47.000;16.084;2023-06-10T06:58:05;21.10;99.90
1594;DHT22;790;47.000;16.084;2023-06-10T07:00:32;21.20;99.90
1594;DHT22;790;47.000;16.084;2023-06-10T07:02:59;21.30;99.90
1594;DHT22;790;47.000;16.084;2023-06-10T07:05:27;21.40;99.90
1594;DHT22;790;47.000;16.084;2023-06-10T07:07:55;21.50;99.90
1594;DHT22;790;47.000;16.084;2023-06-10T07:10:23;21.60;99.90
1594;DHT22;790;47.000;16.084;2023-06-10T07:12:50;21.50;99.90
1594;DHT22;790;47.000;16.084;2023-06-10T07:15:17;21.60;99.90
1594;DHT22;790;47.000;16.084;2023-06-10T07:17:44;21.70;99.90
1594;DHT22;790;47.000;16.084;2023-06-10T07:20:12;21.70;99.90
1594;DHT22;790;47.000;16.084;2023-06-10T07:22:42;21.90;99.90
1594;DHT22;790;47.000;16.084;2023-06-10T07:25:09;22.00;99.90
1594;DHT22;790;47.000;16.084;2023-06-10T07:27:37;21.90;99.90
1594;DHT22;790;47.000;16.084;2023-06-10T07:30:05;21.90;99.90
1594;DHT22;790;47.000;16.084;2023-06-10T07:32:34;21.90;99.90
1594;DHT22;790;47.000;16.084;2023-06-10T07:35:01;22.00;99.90
1594;DHT22;790;47.000;16.084;2023-06-10T07:37:28;21.90;99.90
1594;DHT22;790;47.000;16.084;2023-06-10T07:39:57;21.80;99.90
1594;DHT22;790;47.000;16.084;2023-06-10T07:42:24;22.00;99.90
1594;DHT22;790;47.000;16.084;2023-06-10T07:44:51;22.20;99.90
1594;DHT22;790;47.000;16.084;2023-06-10T07:47:18;22.30;99.90
1594;DHT22;790;47.000;16.084;2023-06-10T07:49:45;22.30;99.90
1594;DHT22;790;47.000;16.084;2023-06-10T07:52:12;22.30;99.90
1594;DHT22;790;47.000;16.084;2023-06-10T07:54:39;22.40;99.90
1594;DHT22;790;47.000;16.084;2023-06-10T07:57:08;22.30;99.90
1594;DHT22;790;47.000;16.084;2023-06-10T07:59:35;22.30;99.90
1594;DHT22;790;47.000;16.084;2023-06-10T08:02:02;22.30;99.90
1594;DHT22;790;47.000;16.084;2023-06-10T08:04:29;22.30;99.90
1594;DHT22;790;47.000;16.084;2023-06-10T08:06:57;22.30;99.90
1594;DHT22;790;47.000;16.084;2023-06-10T08:09:24;22.20;99.90
1594;DHT22;790;47.000;16.084;2023-06-10T08:11:51;22.20;99.90
1594;DHT22;790;47.000;16.084;2023-06-10T08:14:19;22.20;99.90
1594;DHT22;790;47.000;16.084;2023-06-10T08:16:46;22.20;99.90
1594;DHT22;790;47.000;16.084;2023-06-10T08:19:14;22.20;99.90
1594;DHT22;790;47.000;16.084;2023-06-10T08:21:41;22.30;99.90
1594;DHT22;790;47.000;16.084;2023-06-10T08:24:08;22.50;99.90
1594;DHT22;790;47.000;16.084;2023-06-10T08:26:35;22.50;99.90
1594;DHT22;790;47.000;16.084;2023-06-10T08:29:02;22.50;99.90
1594;DHT22;790;47.000;16.084;2023-06-10T08:31:31;22.60;99.90
1594;DHT22;790;47.000;16.084;2023-06-10T08:33:58;22.60;99.90
1594;DHT22;790;47.000;16.084;2023-06-10T08:36:25;22.60;99.90
1594;DHT22;790;47.000;16.084;2023-06-10T08:38:52;22.70;99.90
1594;DHT22;790;47.000;16.084;2023-06-10T08:41:21;22.70;99.90
1594;DHT22;790;47.000;16.084;2023-06-10T08:43:56;22.60;99.90
1594;DHT22;790;47.000;16.084;2023-06-10T08:46:28;22.70;99.90
1594;DHT22;790;47.000;16.084;2023-06-10T08:49:03;22.80;99.90
1594;DHT22;790;47.000;16.084;2023-06-10T08:51:32;22.90;99.90
1594;DHT22;790;47.000;16.084;2023-06-10T08:54:04;23.20;99.90
1594;DHT22;790;47.000;16.084;2023-06-10T08:56:32;23.20;99.90
1594;DHT22;790;47.000;16.084;2023-06-10T08:59:01;23.40;99.90
1594;DHT22;790;47.000;16.084;2023-06-10T09:01:29;23.50;99.90
1594;DHT22;790;47.000;16.084;2023-06-10T09:03:56;23.60;99.90
1594;DHT22;790;47.000;16.084;2023-06-10T09:06:25;23.70;99.90
1594;DHT22;790;47.000;16.084;2023-06-10T09:08:57;23.60;99.90
1594;DHT22;790;47.000;16.084;2023-06-10T09:11:25;23.70;99.90
1594;DHT22;790;47.000;16.084;2023-06-10T09:13:52;23.80;99.90
1594;DHT22;790;47.000;16.084;2023-06-10T09:16:19;23.90;99.90
1594;DHT22;790;47.000;16.084;2023-06-10T09:18:46;24.10;99.90
1594;DHT22;790;47.000;16.084;2023-06-10T09:21:13;24.20;99.90
1594;DHT22;790;47.000;16.084;2023-06-10T09:23:43;24.30;99.90
1594;DHT22;790;47.000;16.084;2023-06-10T09:26:10;24.50;99.90
1594;DHT22;790;47.000;16.084;2023-06-10T09:28:37;24.50;99.90
1594;DHT22;790;47.000;16.084;2023-06-10T09:31:08;24.60;99.90
1594;DHT22;790;47.000;16.084;2023-06-10T09:33:37;24.60;99.90
1594;DHT22;790;47.000;16.084;2023-06-10T09:36:05;24.70;99.90
1594;DHT22;790;47.000;16.084;2023-06-10T09:38:34;24.70;99.90
1594;DHT22;790;47.000;16.084;2023-06-10T09:41:03;24.70;99.90
1594;DHT22;790;47.000;16.084;2023-06-10T09:43:40;24.60;99.90
1594;DHT22;790;47.000;16.084;2023-06-10T09:46:14;24.50;99.90
1594;DHT22;790;47.000;16.084;2023-06-10T09:48:43;24.40;99.90
1594;DHT22;790;47.000;16.084;2023-06-10T09:51:11;24.20;99.90
1594;DHT22;790;47.000;16.084;2023-06-10T09:53:39;24.20;99.90
1594;DHT22;790;47.000;16.084;2023-06-10T09:56:07;24.10;99.90
1594;DHT22;790;47.000;16.084;2023-06-10T09:58:38;24.10;99.90
1594;DHT22;790;47.000;16.084;2023-06-10T10:01:05;23.90;99.90
1594;DHT22;790;47.000;16.084;2023-06-10T10:03:32;23.80;99.90
1594;DHT22;790;47.000;16.084;2023-06-10T10:06:00;23.70;99.90
1594;DHT22;790;47.000;16.084;2023-06-10T10:08:27;23.60;99.90
1594;DHT22;790;47.000;16.084;2023-06-10T10:10:56;23.30;99.90
1594;DHT22;790;47.000;16.084;2023-06-10T10:13:26;22.80;99.90
1594;DHT22;790;47.000;16.084;2023-06-10T10:15:55;22.60;99.90
1594;DHT22;790;47.000;16.084;2023-06-10T10:18:24;22.20;99.90
1594;DHT22;790;47.000;16.084;2023-06-10T10:20:57;21.80;99.90
1594;DHT22;790;47.000;16.084;2023-06-10T10:23:32;21.70;99.90
1594;DHT22;790;47.000;16.084;2023-06-10T10:26:04;21.60;99.90
1594;DHT22;790;47.000;16.084;2023-06-10T10:28:40;21.60;99.90
1594;DHT22;790;47.000;16.084;2023-06-10T10:31:09;21.50;99.90
1594;DHT22;790;47.000;16.084;2023-06-10T10:33:42;21.60;99.90
1594;DHT22;790;47.000;16.084;2023-06-10T10:36:12;21.60;99.90
1594;DHT22;790;47.000;16.084;2023-06-10T10:38:41;21.60;99.90
1594;DHT22;790;47.000;16.084;2023-06-10T10:41:08;21.70;99.90
1594;DHT22;790;47.000;16.084;2023-06-10T10:43:37;21.70;99.90
1594;DHT22;790;47.000;16.084;2023-06-10T10:46:12;21.60;99.90
1594;DHT22;790;47.000;16.084;2023-06-10T10:48:40;21.80;99.90
1594;DHT22;790;47.000;16.084;2023-06-10T10:51:08;21.80;99.90
1594;DHT22;790;47.000;16.084;2023-06-10T10:53:37;21.80;99.90
1594;DHT22;790;47.000;16.084;2023-06-10T10:56:05;21.90;99.90
1594;DHT22;790;47.000;16.084;2023-06-10T10:58:32;21.90;99.90
1594;DHT22;790;47.000;16.084;2023-06-10T11:01:10;22.00;99.90
1594;DHT22;790;47.000;16.084;2023-06-10T11:03:43;22.00;99.90
1594;DHT22;790;47.000;16.084;2023-06-10T11:06:14;22.00;99.90
1594;DHT22;790;47.000;16.084;2023-06-10T11:08:46;22.00;99.90
1594;DHT22;790;47.000;16.084;2023-06-10T11:11:20;22.00;99.90
1594;DHT22;790;47.000;16.084;2023-06-10T11:13:58;22.10;99.90
1594;DHT22;790;47.000;16.084;2023-06-10T11:16:29;22.20;99.90
1594;DHT22;790;47.000;16.084;2023-06-10T11:18:56;22.30;99.90
1594;DHT22;790;47.000;16.084;2023-06-10T11:21:24;22.30;99.90
1594;DHT22;790;47.000;16.084;2023-06-10T11:23:51;22.20;99.90
1594;DHT22;790;47.000;16.084;2023-06-10T11:26:21;22.20;99.90
1594;DHT22;790;47.000;16.084;2023-06-10T11:29:08;22.20;99.90
1594;DHT22;790;47.000;16.084;2023-06-10T11:31:50;22.10;99.90
1594;DHT22;790;47.000;16.084;2023-06-10T11:34:24;22.10;99.90
1594;DHT22;790;47.000;16.084;2023-06-10T11:36:53;22.10;99.90
1594;DHT22;790;47.000;16.084;2023-06-10T11:39:22;22.00;99.90
1594;DHT22;790;47.000;16.084;2023-06-10T11:41:52;21.90;99.90
1594;DHT22;790;47.000;16.084;2023-06-10T11:44:19;21.90;99.90
1594;DHT22;790;47.000;16.084;2023-06-10T11:46:49;21.80;99.90
1594;DHT22;790;47.000;16.084;2023-06-10T11:49:17;21.70;99.90
1594;DHT22;790;47.000;16.084;2023-06-10T11:51:44;21.70;99.90
1594;DHT22;790;47.000;16.084;2023-06-10T11:54:15;21.60;99.90
1594;DHT22;790;47.000;16.084;2023-06-10T11:56:44;21.60;99.90
1594;DHT22;790;47.000;16.084;2023-06-10T11:59:11;21.80;99.90
1594;DHT22;790;47.000;16.084;2023-06-10T12:01:42;21.70;99.90
1594;DHT22;790;47.000;16.084;2023-06-10T12:04:12;21.70;99.90
1594;DHT22;790;47.000;16.084;2023-06-10T12:06:41;21.70;99.90
1594;DHT22;790;47.000;16.084;2023-06-10T12:09:14;21.80;99.90
1594;DHT22;790;47.000;16.084;2023-06-10T12:11:42;21.90;99.90
1594;DHT22;790;47.000;16.084;2023-06-10T12:14:10;21.90;99.90
1594;DHT22;790;47.000;16.084;2023-06-10T12:16:37;22.00;99.90
1594;DHT22;790;47.000;16.084;2023-06-10T12:19:05;22.00;99.90
1594;DHT22;790;47.000;16.084;2023-06-10T12:21:37;22.10;99.90
1594;DHT22;790;47.000;16.084;2023-06-10T12:24:08;22.20;99.90
1594;DHT22;790;47.000;16.084;2023-06-10T12:26:37;22.50;99.90
1594;DHT22;790;47.000;16.084;2023-06-10T12:29:18;22.60;99.90
1594;DHT22;790;47.000;16.084;2023-06-10T12:31:56;22.80;99.90
1594;DHT22;790;47.000;16.084;2023-06-10T12:34:38;23.00;99.90
1594;DHT22;790;47.000;16.084;2023-06-10T12:37:11;23.10;99.90
1594;DHT22;790;47.000;16.084;2023-06-10T12:39:41;23.10;99.90
1594;DHT22;790;47.000;16.084;2023-06-10T12:42:09;23.10;99.90
1594;DHT22;790;47.000;16.084;2023-06-10T12:44:39;23.30;99.90
1594;DHT22;790;47.000;16.084;2023-06-10T12:47:10;23.40;99.90
1594;DHT22;790;47.000;16.084;2023-06-10T12:49:39;23.50;99.90
1594;DHT22;790;47.000;16.084;2023-06-10T12:52:08;23.60;99.90
1594;DHT22;790;47.000;16.084;2023-06-10T12:54:35;23.90;99.90
1594;DHT22;790;47.000;16.084;2023-06-10T12:57:03;24.00;99.90
1594;DHT22;790;47.000;16.084;2023-06-10T12:59:30;24.20;99.90
1594;DHT22;790;47.000;16.084;2023-06-10T13:01:59;24.20;99.90
1594;DHT22;790;47.000;16.084;2023-06-10T13:04:26;24.20;99.90
1594;DHT22;790;47.000;16.084;2023-06-10T13:06:53;24.20;99.90
1594;DHT22;790;47.000;16.084;2023-06-10T13:09:26;24.30;99.90
1594;DHT22;790;47.000;16.084;2023-06-10T13:11:53;24.50;99.90
1594;DHT22;790;47.000;16.084;2023-06-10T13:14:20;24.70;99.90
1594;DHT22;790;47.000;16.084;2023-06-10T13:16:48;24.90;99.90
1594;DHT22;790;47.000;16.084;2023-06-10T13:19:15;24.90;99.90
1594;DHT22;790;47.000;16.084;2023-06-10T13:21:43;24.90;99.90
1594;DHT22;790;47.000;16.084;2023-06-10T13:24:10;25.00;99.90
1594;DHT22;790;47.000;16.084;2023-06-10T13:26:38;24.90;99.90
1594;DHT22;790;47.000;16.084;2023-06-10T13:29:05;24.70;99.90
1594;DHT22;790;47.000;16.084;2023-06-10T13:31:33;24.70;99.90
1594;DHT22;790;47.000;16.084;2023-06-10T13:34:00;24.70;99.90
1594;DHT22;790;47.000;16.084;2023-06-10T13:36:27;24.60;99.90
1594;DHT22;790;47.000;16.084;2023-06-10T13:38:54;24.50;99.90
1594;DHT22;790;47.000;16.084;2023-06-10T13:41:21;24.60;99.90
1594;DHT22;790;47.000;16.084;2023-06-10T13:43:50;24.50;99.90
1594;DHT22;790;47.000;16.084;2023-06-10T13:46:17;24.30;99.90
1594;DHT22;790;47.000;16.084;2023-06-10T13:48:47;24.20;99.90
1594;DHT22;790;47.000;16.084;2023-06-10T13:51:14;24.30;99.90
1594;DHT22;790;47.000;16.084;2023-06-10T13:53:41;24.20;99.90
1594;DHT22;790;47.000;16.084;2023-06-10T13:56:08;24.10;99.90
1594;DHT22;790;47.000;16.084;2023-06-10T13:58:35;24.10;99.90
1594;DHT22;790;47.000;16.084;2023-06-10T14:01:06;24.10;99.90
1594;DHT22;790;47.000;16.084;2023-06-10T14:03:33;24.30;99.90
1594;DHT22;790;47.000;16.084;2023-06-10T14:06:00;24.40;99.90
1594;DHT22;790;47.000;16.084;2023-06-10T14:08:28;24.40;99.90
1594;DHT22;790;47.000;16.084;2023-06-10T14:10:55;24.50;99.90
1594;DHT22;790;47.000;16.084;2023-06-10T14:13:22;24.60;99.90
1594;DHT22;790;47.000;16.084;2023-06-10T14:15:49;24.70;99.90
1594;DHT22;790;47.000;16.084;2023-06-10T14:18:18;24.80;99.90
1594;DHT22;790;47.000;16.084;2023-06-10T14:20:45;24.80;99.90
1594;DHT22;790;47.000;16.084;2023-06-10T14:23:12;24.90;99.90
1594;DHT22;790;47.000;16.084;2023-06-10T14:25:39;24.90;99.90
1594;DHT22;790;47.000;16.084;2023-06-10T14:28:06;24.90;99.90
1594;DHT22;790;47.000;16.084;2023-06-10T14:30:34;25.00;99.90
1594;DHT22;790;47.000;16.084;2023-06-10T14:33:01;25.00;99.90
1594;DHT22;790;47.000;16.084;2023-06-10T14:35:30;25.10;99.90
1594;DHT22;790;47.000;16.084;2023-06-10T14:37:57;25.00;99.90
1594;DHT22;790;47.000;16.084;2023-06-10T14:40:25;25.00;99.90
1594;DHT22;790;47.000;16.084;2023-06-10T14:42:54;25.10;99.90
1594;DHT22;790;47.000;16.084;2023-06-10T14:45:21;25.10;99.90
1594;DHT22;790;47.000;16.084;2023-06-10T14:47:48;25.10;99.90
1594;DHT22;790;47.000;16.084;2023-06-10T14:50:15;25.10;99.90
1594;DHT22;790;47.000;16.084;2023-06-10T14:52:44;25.00;99.90
1594;DHT22;790;47.000;16.084;2023-06-10T14:55:11;25.00;99.90
1594;DHT22;790;47.000;16.084;2023-06-10T14:57:38;24.90;99.90
1594;DHT22;790;47.000;16.084;2023-06-10T15:00:06;24.80;99.90
1594;DHT22;790;47.000;16.084;2023-06-10T15:02:34;24.70;99.90
1594;DHT22;790;47.000;16.084;2023-06-10T15:05:01;24.70;99.90
1594;DHT22;790;47.000;16.084;2023-06-10T15:07:29;24.60;99.90
1594;DHT22;790;47.000;16.084;2023-06-10T15:10:14;24.50;99.90
1594;DHT22;790;47.000;16.084;2023-06-10T15:12:43;24.50;99.90
1594;DHT22;790;47.000;16.084;2023-06-10T15:15:11;24.50;99.90
1594;DHT22;790;47.000;16.084;2023-06-10T15:17:40;24.60;99.90
1594;DHT22;790;47.000;16.084;2023-06-10T15:20:10;24.80;99.90
1594;DHT22;790;47.000;16.084;2023-06-10T15:22:37;25.10;99.90
1594;DHT22;790;47.000;16.084;2023-06-10T15:25:05;25.30;99.90
1594;DHT22;790;47.000;16.084;2023-06-10T15:27:39;25.50;99.90
1594;DHT22;790;47.000;16.084;2023-06-10T15:30:11;25.70;99.90
1594;DHT22;790;47.000;16.084;2023-06-10T15:32:48;25.90;99.90
1594;DHT22;790;47.000;16.084;2023-06-10T15:35:26;26.00;99.90
1594;DHT22;790;47.000;16.084;2023-06-10T15:38:02;25.90;99.90
1594;DHT22;790;47.000;16.084;2023-06-10T15:40:41;26.00;99.90
1594;DHT22;790;47.000;16.084;2023-06-10T15:43:19;25.90;99.90
1594;DHT22;790;47.000;16.084;2023-06-10T15:45:57;25.80;99.90
1594;DHT22;790;47.000;16.084;2023-06-10T15:48:25;25.50;99.90
1594;DHT22;790;47.000;16.084;2023-06-10T15:50:58;25.20;99.90
1594;DHT22;790;47.000;16.084;2023-06-10T15:53:25;25.00;99.90
1594;DHT22;790;47.000;16.084;2023-06-10T15:55:52;24.90;99.90
1594;DHT22;790;47.000;16.084;2023-06-10T15:58:25;24.90;99.90
1594;DHT22;790;47.000;16.084;2023-06-10T16:00:53;25.00;99.90
1594;DHT22;790;47.000;16.084;2023-06-10T16:03:20;25.00;99.90
1594;DHT22;790;47.000;16.084;2023-06-10T16:05:48;25.10;99.90
1594;DHT22;790;47.000;16.084;2023-06-10T16:08:17;25.20;99.90
1594;DHT22;790;47.000;16.084;2023-06-10T16:10:45;25.30;99.90